Time;durP1;ratioP1;P1;durP2;ratioP2;P2;SDS_P1;SDS_P2;PMS_P1;PMS_P2;Temp;Humidity;BMP_temperature;BMP_pressure;BME280_temperature;BME280_humidity;BME280_pressure;Samples;Min_cycle;Max_cycle;Signal;HPM_P1;HPM_P2
2023/03/24 00:01:17;;;;;;;6.15;4.72;;;13.00;96.70;;;;;;5084121;28;20607;-71
2023/03/24 00:03:47;;;;;;;4.85;4.30;;;13.00;96.70;;;;;;5078862;28;20040;-72
2023/03/24 00:06:17;;;;;;;5.75;4.93;;;13.00;96.70;;;;;;5077556;28;20040;-71
2023/03/24 00:08:47;;;;;;;4.82;4.32;;;13.00;96.70;;;;;;5055179;28;20063;-72
2023/03/24 00:11:17;;;;;;;4.13;3.78;;;13.00;96.70;;;;;;5077419;28;20059;-71
2023/03/24 00:13:48;;;;;;;5.57;3.78;;;13.00;96.70;;;;;;5085886;28;20043;-72
2023/03/24 00:16:18;;;;;;;4.47;3.63;;;12.90;96.70;;;;;;5072781;28;20089;-72
2023/03/24 00:18:51;;;;;;;6.20;3.70;;;12.90;96.70;;;;;;5077832;28;20040;-72
2023/03/24 00:21:23;;;;;;;6.57;3.42;;;12.80;96.70;;;;;;5076019;28;20072;-71
2023/03/24 00:23:54;;;;;;;4.78;3.50;;;12.70;96.70;;;;;;5079198;28;20054;-71
2023/03/24 00:26:23;;;;;;;5.13;3.50;;;12.80;96.70;;;;;;5078079;28;20049;-71
2023/03/24 00:28:53;;;;;;;4.72;3.17;;;12.80;96.70;;;;;;5077446;28;20040;-72
2023/03/24 00:31:21;;;;;;;4.50;3.30;;;12.80;96.70;;;;;;5080436;28;20036;-71
2023/03/24 00:33:52;;;;;;;4.78;3.40;;;12.80;96.70;;;;;;5059969;28;20036;-71
2023/03/24 00:36:23;;;;;;;4.13;3.35;;;12.70;96.70;;;;;;5078996;28;21789;-71
2023/03/24 00:38:53;;;;;;;5.13;3.15;;;12.60;96.70;;;;;;5077622;28;20130;-72
2023/03/24 00:41:23;;;;;;;5.78;3.55;;;12.60;96.70;;;;;;5075825;28;20089;-71
2023/03/24 00:43:54;;;;;;;3.80;2.85;;;12.60;96.70;;;;;;5081999;28;20051;-71
2023/03/24 00:46:26;;;;;;;3.28;2.90;;;12.60;96.70;;;;;;5076715;28;20037;-71
2023/03/24 00:49:01;;;;;;;4.55;3.22;;;12.60;96.70;;;;;;5074385;28;20484;-71
2023/03/24 00:51:32;;;;;;;5.75;3.47;;;12.60;96.70;;;;;;5062379;28;20048;-71
2023/03/24 00:54:01;;;;;;;4.88;3.10;;;12.60;96.70;;;;;;5075634;28;20044;-71
2023/03/24 00:56:32;;;;;;;5.38;3.00;;;12.50;96.70;;;;;;5075357;28;20498;-72
2023/03/24 00:59:01;;;;;;;3.63;2.90;;;12.50;96.70;;;;;;5078571;28;21171;-72
2023/03/24 01:01:35;;;;;;;4.32;3.03;;;12.50;96.70;;;;;;5076979;28;20098;-71
2023/03/24 01:04:04;;;;;;;4.32;2.90;;;12.50;96.70;;;;;;5075521;28;20048;-72
2023/03/24 01:06:35;;;;;;;3.33;3.03;;;12.40;96.70;;;;;;5079707;28;20040;-71
2023/03/24 01:09:06;;;;;;;4.82;3.05;;;12.40;96.70;;;;;;5062081;28;20037;-71
2023/03/24 01:11:37;;;;;;;4.28;3.17;;;12.40;96.70;;;;;;5075855;28;20127;-72
2023/03/24 01:14:05;;;;;;;4.15;3.10;;;12.40;96.70;;;;;;5073031;28;20387;-71
2023/03/24 01:16:33;;;;;;;3.42;2.80;;;12.40;96.70;;;;;;5076627;28;20119;-71
2023/03/24 01:19:01;;;;;;;5.50;2.70;;;12.30;96.70;;;;;;5078145;28;20134;-71
2023/03/24 01:21:30;;;;;;;3.92;2.85;;;12.30;96.70;;;;;;5078369;28;20035;-71
2023/03/24 01:23:58;;;;;;;3.30;2.40;;;12.20;96.70;;;;;;5078507;28;20055;-72
2023/03/24 01:26:27;;;;;;;4.22;2.60;;;12.30;96.70;;;;;;5078466;28;20045;-71
2023/03/24 01:28:55;;;;;;;4.25;2.53;;;12.20;96.70;;;;;;5071439;28;20569;-72
2023/03/24 01:31:23;;;;;;;4.07;3.00;;;12.20;96.70;;;;;;5057125;28;20044;-72
2023/03/24 01:33:51;;;;;;;2.72;2.38;;;12.20;96.70;;;;;;5078398;28;20058;-72
2023/03/24 01:36:19;;;;;;;4.45;2.55;;;12.20;96.70;;;;;;5075008;28;20040;-71
2023/03/24 01:38:47;;;;;;;4.50;3.17;;;12.30;96.70;;;;;;5077993;28;20044;-71
2023/03/24 01:41:15;;;;;;;3.67;2.45;;;12.20;96.70;;;;;;5080370;28;20032;-71
2023/03/24 01:43:44;;;;;;;4.38;2.55;;;12.30;96.70;;;;;;5076496;28;20127;-72
2023/03/24 01:46:17;;;;;;;3.90;2.53;;;12.20;96.70;;;;;;5069092;28;20040;-71
2023/03/24 01:48:51;;;;;;;3.83;2.42;;;12.10;96.70;;;;;;5071177;28;20055;-71
2023/03/24 01:51:23;;;;;;;4.28;2.55;;;12.10;96.70;;;;;;5075348;28;20051;-71
2023/03/24 01:53:55;;;;;;;4.53;2.40;;;12.10;96.70;;;;;;5071372;28;20166;-71
2023/03/24 01:56:24;;;;;;;4.40;2.58;;;12.00;96.70;;;;;;5073108;28;20059;-72
2023/03/24 01:58:57;;;;;;;5.18;2.97;;;12.00;96.70;;;;;;5073705;28;20138;-71
2023/03/24 02:01:34;;;;;;;4.40;2.78;;;12.00;96.70;;;;;;5058993;28;20135;-71
2023/03/24 02:04:18;;;;;;;4.15;3.50;;;12.00;96.70;;;;;;5073999;28;20098;-71
2023/03/24 02:06:47;;;;;;;3.95;3.55;;;12.00;96.70;;;;;;5076244;28;20075;-72
2023/03/24 02:09:16;;;;;;;7.18;4.55;;;12.00;96.70;;;;;;5063109;28;20749;-72
2023/03/24 02:11:45;;;;;;;7.47;4.13;;;12.00;96.70;;;;;;5087867;28;20047;-72
2023/03/24 02:14:15;;;;;;;6.10;4.50;;;12.00;96.70;;;;;;5076023;28;20154;-71
2023/03/24 02:17:22;;;;;;;5.80;4.10;;;12.00;96.70;;;;;;5074099;28;20051;-72
2023/03/24 02:20:22;;;;;;;4.75;4.28;;;11.90;96.70;;;;;;5058729;28;20051;-71
2023/03/24 02:23:18;;;;;;;4.32;3.92;;;11.90;96.70;;;;;;5071634;28;20050;-72
2023/03/24 02:26:17;;;;;;;7.40;4.57;;;12.00;96.70;;;;;;5077309;28;20093;-72
2023/03/24 02:28:54;;;;;;;5.95;3.95;;;12.00;96.70;;;;;;5075237;28;20044;-71
2023/03/24 02:31:44;;;;;;;;;;;12.10;96.70;;;;;;5074811;28;20037;-72
2023/03/24 02:34:40;;;;;;;7.20;5.20;;;12.10;96.70;;;;;;5059190;28;20298;-72
2023/03/24 02:37:42;;;;;;;4.55;4.00;;;11.90;96.70;;;;;;5077268;28;20101;-72
2023/03/24 02:40:25;;;;;;;8.57;5.20;;;11.80;96.70;;;;;;5073577;28;20109;-72
2023/03/24 02:43:03;;;;;;;6.07;4.97;;;11.90;96.70;;;;;;5057768;28;20966;-71
2023/03/24 02:45:37;;;;;;;5.90;4.18;;;12.00;96.70;;;;;;5076263;28;20036;-71
2023/03/24 02:48:19;;;;;;;6.50;4.68;;;11.90;96.70;;;;;;5081835;28;20851;-72
2023/03/24 02:50:53;;;;;;;7.65;4.78;;;12.00;96.70;;;;;;5076946;28;20175;-71
2023/03/24 02:53:30;;;;;;;6.50;5.00;;;11.90;96.70;;;;;;5075326;28;20033;-71
2023/03/24 02:56:28;;;;;;;5.75;4.18;;;11.90;96.70;;;;;;5063920;28;20045;-72
2023/03/24 02:59:10;;;;;;;4.75;4.00;;;11.90;96.70;;;;;;5075952;28;20048;-72
2023/03/24 03:01:44;;;;;;;7.32;4.35;;;11.90;96.70;;;;;;5078861;28;20139;-72
2023/03/24 03:04:44;;;;;;;4.70;4.30;;;11.90;96.70;;;;;;5080025;28;20200;-71
2023/03/24 03:07:15;;;;;;;4.90;4.40;;;11.80;96.70;;;;;;5056065;28;20052;-71
2023/03/24 03:09:49;;;;;;;5.93;4.22;;;11.90;96.70;;;;;;5072219;28;20103;-72
2023/03/24 03:12:24;;;;;;;4.60;4.13;;;11.80;96.70;;;;;;5073452;28;20581;-71
2023/03/24 03:14:56;;;;;;;5.50;4.10;;;11.80;96.70;;;;;;5077229;28;20052;-72
2023/03/24 03:17:29;;;;;;;5.38;4.22;;;11.80;96.70;;;;;;5076088;28;20083;-71
2023/03/24 03:20:05;;;;;;;4.28;3.50;;;11.90;96.70;;;;;;5077888;28;20048;-71
2023/03/24 03:22:41;;;;;;;4.43;3.75;;;11.90;96.70;;;;;;5076238;28;20062;-72
2023/03/24 03:25:12;;;;;;;5.35;4.15;;;11.90;96.70;;;;;;5079281;28;20044;-71
2023/03/24 03:27:45;;;;;;;7.63;4.20;;;11.90;96.70;;;;;;5077263;28;20449;-71
2023/03/24 03:30:19;;;;;;;7.32;3.97;;;11.80;96.70;;;;;;5083098;28;20043;-71
2023/03/24 03:32:53;;;;;;;5.43;3.90;;;11.70;96.70;;;;;;5073626;28;20179;-72
2023/03/24 03:35:27;;;;;;;3.63;3.30;;;11.70;96.70;;;;;;5073804;28;20538;-71
2023/03/24 03:38:05;;;;;;;4.60;3.03;;;11.70;96.70;;;;;;5076048;28;20040;-71
2023/03/24 03:40:37;;;;;;;4.60;3.53;;;11.60;96.70;;;;;;5092339;27;20055;-71
2023/03/24 03:43:15;;;;;;;3.92;3.13;;;11.70;96.70;;;;;;5080749;28;20581;-71
2023/03/24 03:45:44;;;;;;;3.22;2.55;;;11.60;96.70;;;;;;5078038;28;20148;-73
2023/03/24 03:48:16;;;;;;;5.22;3.28;;;11.60;96.70;;;;;;5077366;28;20390;-71
2023/03/24 03:50:45;;;;;;;4.82;3.00;;;11.70;96.70;;;;;;5077592;28;20554;-71
2023/03/24 03:53:16;;;;;;;4.35;2.92;;;11.70;96.70;;;;;;5075343;28;20036;-71
2023/03/24 03:55:46;;;;;;;4.43;2.95;;;11.70;96.70;;;;;;5079585;28;20075;-72
2023/03/24 03:58:16;;;;;;;6.22;4.03;;;11.70;96.70;;;;;;5073630;28;20055;-71
2023/03/24 04:00:54;;;;;;;4.35;2.88;;;11.70;96.70;;;;;;5077372;28;20040;-71
2023/03/24 04:03:48;;;;;;;;;;;11.70;96.70;;;;;;5076508;28;20048;-71
2023/03/24 04:06:31;;;;;;;3.53;2.10;;;11.60;96.70;;;;;;5073430;28;19990;-71
2023/03/24 04:09:11;;;;;;;4.82;3.40;;;11.70;96.70;;;;;;5075491;28;20044;-71
2023/03/24 04:11:52;;;;;;;5.05;2.90;;;11.70;96.70;;;;;;5075970;28;20048;-71
2023/03/24 04:14:50;;;;;;;4.03;2.97;;;11.60;96.70;;;;;;5075603;28;20555;-71
2023/03/24 04:17:57;;;;;;;3.85;2.65;;;11.60;96.70;;;;;;5076763;28;20058;-71
2023/03/24 04:20:48;;;;;;;2.92;2.30;;;11.60;96.70;;;;;;5077788;28;20055;-71
2023/03/24 04:23:26;;;;;;;3.88;2.42;;;11.70;96.70;;;;;;5075830;28;20044;-71
2023/03/24 04:26:09;;;;;;;2.83;2.15;;;11.80;96.70;;;;;;5077795;28;20040;-71
2023/03/24 04:28:46;;;;;;;2.80;2.10;;;11.80;96.70;;;;;;5074592;28;20060;-71
2023/03/24 04:31:25;;;;;;;3.53;2.38;;;11.80;96.70;;;;;;5076531;28;20143;-71
2023/03/24 04:34:02;;;;;;;4.43;2.42;;;11.80;96.70;;;;;;5075135;28;21630;-70
2023/03/24 04:36:41;;;;;;;4.45;2.45;;;11.70;96.70;;;;;;5078546;28;20404;-71
2023/03/24 04:39:37;;;;;;;3.28;2.20;;;11.70;96.70;;;;;;5072635;28;20503;-72
2023/03/24 04:42:16;;;;;;;5.10;2.78;;;11.70;96.70;;;;;;5076743;28;20547;-71
2023/03/24 04:44:50;;;;;;;5.15;2.50;;;11.70;96.70;;;;;;5080709;28;20592;-71
2023/03/24 04:47:24;;;;;;;3.35;2.38;;;11.70;96.70;;;;;;5075887;28;20064;-71
2023/03/24 04:50:10;;;;;;;3.42;2.25;;;11.70;96.70;;;;;;5071934;28;20048;-71
2023/03/24 04:52:39;;;;;;;5.65;2.03;;;11.70;96.70;;;;;;5078498;28;20055;-71
2023/03/24 04:55:31;;;;;;;3.30;2.00;;;11.70;96.70;;;;;;5077742;28;20079;-71
2023/03/24 04:57:59;;;;;;;4.88;2.42;;;11.70;96.70;;;;;;5075324;28;20058;-71
2023/03/24 05:00:27;;;;;;;4.60;2.17;;;11.60;96.70;;;;;;5072835;28;20139;-71
2023/03/24 05:02:57;;;;;;;3.40;2.38;;;11.60;96.70;;;;;;5060790;28;20055;-71
2023/03/24 05:05:27;;;;;;;4.72;2.70;;;11.50;96.70;;;;;;5075415;28;20048;-72
2023/03/24 05:07:59;;;;;;;3.70;2.40;;;11.50;96.70;;;;;;5071250;28;20048;-71
2023/03/24 05:10:28;;;;;;;4.15;2.63;;;11.40;96.70;;;;;;5080464;28;20050;-71
2023/03/24 05:12:57;;;;;;;4.97;2.95;;;11.40;96.70;;;;;;5074907;28;20040;-71
2023/03/24 05:15:25;;;;;;;4.30;2.50;;;11.40;96.70;;;;;;5078096;28;20108;-71
2023/03/24 05:18:11;;;;;;;4.05;2.40;;;11.40;96.70;;;;;;5063343;28;20059;-71
2023/03/24 05:20:39;;;;;;;3.00;2.40;;;11.40;96.70;;;;;;5078662;28;20140;-71
2023/03/24 05:23:16;;;;;;;2.70;2.00;;;11.50;96.70;;;;;;5057173;28;20055;-71
2023/03/24 05:25:46;;;;;;;3.80;2.63;;;11.50;96.70;;;;;;5069065;28;20530;-72
2023/03/24 05:28:16;;;;;;;2.67;2.20;;;11.50;96.70;;;;;;5073060;28;20499;-71
2023/03/24 05:30:44;;;;;;;3.05;2.22;;;11.50;96.70;;;;;;5070970;28;20450;-71
2023/03/24 05:33:40;;;;;;;4.28;2.45;;;11.50;96.70;;;;;;5072337;28;20053;-71
2023/03/24 05:36:12;;;;;;;4.93;2.22;;;11.60;96.70;;;;;;5071580;28;20309;-70
2023/03/24 05:38:41;;;;;;;4.35;2.35;;;11.60;96.70;;;;;;5067976;28;20052;-71
2023/03/24 05:41:09;;;;;;;4.53;2.65;;;11.70;96.70;;;;;;5064305;28;20397;-71
2023/03/24 05:43:41;;;;;;;3.45;2.50;;;11.70;96.70;;;;;;5077234;28;20052;-71
2023/03/24 05:46:12;;;;;;;4.90;2.65;;;11.70;96.70;;;;;;5074413;28;20101;-70
2023/03/24 05:48:42;;;;;;;4.75;2.65;;;11.70;96.70;;;;;;5072111;28;20065;-70
2023/03/24 05:51:13;;;;;;;2.83;2.35;;;11.80;96.70;;;;;;5072673;28;20044;-71
2023/03/24 05:53:42;;;;;;;3.08;2.50;;;11.80;96.70;;;;;;5071164;28;20102;-71
2023/03/24 05:56:12;;;;;;;3.80;2.63;;;11.80;96.70;;;;;;5078632;28;20163;-71
2023/03/24 05:58:59;;;;;;;4.43;2.80;;;11.70;96.70;;;;;;5074674;28;20090;-71
2023/03/24 06:01:47;;;;;;;4.55;2.83;;;11.80;96.70;;;;;;5066624;28;20139;-71
2023/03/24 06:04:29;;;;;;;3.60;2.38;;;11.80;96.70;;;;;;5078527;28;20673;-70
2023/03/24 06:07:04;;;;;;;5.40;2.42;;;11.70;96.70;;;;;;5074866;28;20055;-71
2023/03/24 06:09:36;;;;;;;4.68;2.67;;;11.60;96.70;;;;;;5074495;28;20051;-71
2023/03/24 06:12:09;;;;;;;3.50;2.30;;;11.50;96.70;;;;;;5077410;28;20051;-71
2023/03/24 06:14:44;;;;;;;4.93;2.63;;;11.50;96.70;;;;;;5077670;28;20510;-71
2023/03/24 06:17:13;;;;;;;4.90;2.50;;;11.60;96.70;;;;;;5060077;28;20051;-70
2023/03/24 06:19:49;;;;;;;3.47;2.33;;;11.60;96.70;;;;;;5072430;28;20056;-71
2023/03/24 06:22:37;;;;;;;3.97;2.42;;;11.60;96.70;;;;;;5074522;28;20048;-71
2023/03/24 06:25:11;;;;;;;3.45;2.30;;;11.60;96.70;;;;;;5077713;28;20048;-71
2023/03/24 06:27:45;;;;;;;8.13;3.00;;;11.70;96.70;;;;;;5075205;28;20062;-70
2023/03/24 06:30:18;;;;;;;8.23;3.35;;;11.70;96.70;;;;;;5071206;28;20101;-71
2023/03/24 06:32:46;;;;;;;6.50;3.22;;;11.70;96.70;;;;;;5072607;28;20071;-71
2023/03/24 06:35:18;;;;;;;7.70;4.15;;;11.70;96.70;;;;;;5072407;28;21332;-71
2023/03/24 06:37:52;;;;;;;6.00;3.67;;;11.80;96.70;;;;;;5064255;28;20044;-71
2023/03/24 06:40:21;;;;;;;6.40;3.60;;;11.90;96.70;;;;;;5060094;28;20048;-71
2023/03/24 06:42:54;;;;;;;7.18;4.28;;;12.00;96.70;;;;;;5075864;28;20047;-70
2023/03/24 06:45:22;;;;;;;7.53;4.57;;;11.90;96.70;;;;;;5073049;28;20035;-70
2023/03/24 06:47:54;;;;;;;9.10;5.38;;;12.00;96.70;;;;;;5062256;28;20131;-70
2023/03/24 06:50:31;;;;;;;9.27;5.78;;;12.00;96.70;;;;;;5072037;28;20065;-70
2023/03/24 06:53:04;;;;;;;16.88;10.15;;;12.10;96.70;;;;;;5062383;28;20055;-70
2023/03/24 06:55:35;;;;;;;17.30;10.30;;;12.20;96.70;;;;;;5073829;28;20086;-70
2023/03/24 06:58:04;;;;;;;15.52;8.70;;;12.10;96.70;;;;;;5057182;28;20134;-70
2023/03/24 07:00:41;;;;;;;14.57;8.20;;;12.20;96.70;;;;;;5073463;28;20395;-70
2023/03/24 07:03:29;;;;;;;12.25;7.55;;;12.40;96.70;;;;;;5072369;28;20044;-70
2023/03/24 07:06:25;;;;;;;12.05;6.35;;;12.40;96.70;;;;;;5074757;28;20045;-70
2023/03/24 07:08:56;;;;;;;9.98;5.43;;;12.60;96.70;;;;;;5075488;28;20048;-70
2023/03/24 07:11:27;;;;;;;9.88;4.75;;;12.70;96.70;;;;;;5077410;28;20058;-70
2023/03/24 07:13:58;;;;;;;9.18;4.45;;;12.80;96.70;;;;;;5076622;28;20040;-71
2023/03/24 07:16:28;;;;;;;10.85;4.60;;;12.90;96.70;;;;;;5071618;28;20068;-70
2023/03/24 07:19:21;;;;;;;9.65;4.70;;;13.00;96.70;;;;;;5070520;28;20855;-70
2023/03/24 07:21:59;;;;;;;12.93;5.50;;;13.10;96.70;;;;;;5073627;28;20048;-70
2023/03/24 07:24:44;;;;;;;;;;;13.20;96.70;;;;;;5072862;28;20253;-71
2023/03/24 07:27:36;;;;;;;14.75;7.50;;;13.20;96.70;;;;;;5077375;28;19935;-71
2023/03/24 07:30:08;;;;;;;11.88;6.60;;;13.30;96.70;;;;;;5075358;28;20649;-70
2023/03/24 07:32:42;;;;;;;10.13;6.57;;;13.40;96.70;;;;;;5074230;28;20074;-70
2023/03/24 07:35:12;;;;;;;9.70;6.97;;;13.50;96.70;;;;;;5072337;28;20051;-71
2023/03/24 07:37:41;;;;;;;9.18;6.20;;;13.60;96.70;;;;;;5077309;28;20044;-71
2023/03/24 07:40:12;;;;;;;7.47;5.05;;;13.60;96.70;;;;;;5080970;28;20104;-71
2023/03/24 07:42:40;;;;;;;8.82;4.55;;;13.70;96.70;;;;;;5080856;28;20808;-72
2023/03/24 07:45:24;;;;;;;6.22;4.03;;;13.60;96.70;;;;;;5081309;28;20050;-72
2023/03/24 07:47:53;;;;;;;9.20;5.05;;;13.60;96.70;;;;;;5098611;28;20497;-72
2023/03/24 07:50:21;;;;;;;6.85;4.05;;;13.70;96.70;;;;;;5098396;28;20036;-71
2023/03/24 07:52:50;;;;;;;9.25;4.35;;;13.80;96.70;;;;;;5076321;28;20465;-71
2023/03/24 07:55:20;;;;;;;5.85;3.95;;;14.00;96.70;;;;;;5071635;28;20665;-71
2023/03/24 07:57:55;;;;;;;8.43;4.65;;;14.10;96.70;;;;;;5075417;28;20048;-70
2023/03/24 08:00:28;;;;;;;7.78;4.28;;;14.20;96.70;;;;;;5085139;28;20108;-71
2023/03/24 08:03:12;;;;;;;8.40;3.83;;;14.40;96.70;;;;;;5088242;28;20032;-72
2023/03/24 08:06:19;;;;;;;5.85;3.88;;;14.40;96.70;;;;;;5059965;28;20041;-72
2023/03/24 08:08:52;;;;;;;8.60;3.70;;;14.50;96.70;;;;;;5061684;28;20063;-70
2023/03/24 08:11:21;;;;;;;5.38;3.40;;;14.60;96.70;;;;;;5063372;28;20052;-71
2023/03/24 08:13:48;;;;;;;6.05;3.20;;;14.70;96.70;;;;;;5078602;28;20498;-71
2023/03/24 08:16:16;;;;;;;7.63;3.55;;;14.80;96.70;;;;;;5091169;28;20511;-71
2023/03/24 08:18:45;;;;;;;5.80;3.33;;;14.80;96.70;;;;;;5094508;28;20051;-72
2023/03/24 08:21:13;;;;;;;6.35;3.53;;;15.00;96.70;;;;;;5065684;28;20051;-71
2023/03/24 08:23:41;;;;;;;8.10;3.38;;;15.00;96.70;;;;;;5085499;28;20504;-71
2023/03/24 08:26:11;;;;;;;5.18;3.38;;;15.20;96.70;;;;;;5083554;28;20048;-71
2023/03/24 08:28:40;;;;;;;4.65;3.22;;;15.30;96.70;;;;;;5078573;28;20052;-70
2023/03/24 08:31:08;;;;;;;3.38;3.03;;;15.40;96.70;;;;;;5083223;28;20058;-72
2023/03/24 08:33:36;;;;;;;6.97;3.78;;;15.50;96.70;;;;;;5084017;28;20074;-72
2023/03/24 08:36:07;;;;;;;4.63;3.58;;;15.70;96.70;;;;;;5061018;28;20406;-72
2023/03/24 08:38:37;;;;;;;4.85;3.65;;;15.70;96.70;;;;;;5088555;28;20040;-71
2023/03/24 08:41:07;;;;;;;6.82;3.50;;;15.80;96.70;;;;;;5085173;28;20040;-71
2023/03/24 08:43:37;;;;;;;7.53;3.78;;;16.00;96.70;;;;;;5073528;28;20067;-71
2023/03/24 08:46:08;;;;;;;5.07;4.03;;;16.10;96.70;;;;;;5073922;28;20048;-70
2023/03/24 08:48:47;;;;;;;6.65;4.13;;;16.10;96.70;;;;;;5071733;28;20552;-70
2023/03/24 08:51:16;;;;;;;9.13;5.35;;;16.10;96.70;;;;;;5084976;28;20051;-71
2023/03/24 08:53:45;;;;;;;8.93;4.93;;;16.10;96.70;;;;;;5077216;28;20682;-70
2023/03/24 08:56:12;;;;;;;10.20;5.57;;;16.10;96.70;;;;;;5091105;28;20047;-71
2023/03/24 08:58:42;;;;;;;7.60;5.05;;;16.20;96.70;;;;;;5092548;28;20043;-71
2023/03/24 09:01:11;;;;;;;8.88;4.20;;;16.20;96.70;;;;;;5085147;28;20048;-71
2023/03/24 09:03:40;;;;;;;3.42;2.67;;;16.30;96.70;;;;;;5090041;28;20409;-70
2023/03/24 09:06:08;;;;;;;5.72;3.10;;;16.30;96.70;;;;;;5084583;28;20481;-71
2023/03/24 09:08:36;;;;;;;3.97;2.72;;;16.40;96.70;;;;;;5092585;28;20047;-71
2023/03/24 09:11:05;;;;;;;4.75;2.90;;;16.50;96.70;;;;;;5078741;28;20048;-71
2023/03/24 09:13:34;;;;;;;7.53;3.15;;;16.50;96.70;;;;;;5079834;28;20050;-71
2023/03/24 09:16:04;;;;;;;4.05;3.30;;;16.50;96.70;;;;;;5095144;28;20040;-71
2023/03/24 09:18:33;;;;;;;5.20;3.20;;;16.50;96.70;;;;;;5091612;28;20044;-71
2023/03/24 09:21:01;;;;;;;3.97;2.28;;;16.60;96.70;;;;;;5090899;28;20048;-70
2023/03/24 09:23:30;;;;;;;4.40;2.58;;;16.60;96.70;;;;;;5083525;28;20067;-70
2023/03/24 09:25:59;;;;;;;6.78;3.10;;;16.70;96.70;;;;;;5091029;28;20417;-70
2023/03/24 09:28:27;;;;;;;6.47;4.28;;;16.70;96.70;;;;;;5085963;28;20130;-70
2023/03/24 09:30:59;;;;;;;10.05;6.82;;;16.80;96.70;;;;;;5093522;28;20998;-71
2023/03/24 09:33:29;;;;;;;12.05;8.73;;;16.80;96.70;;;;;;5082596;28;20112;-70
2023/03/24 09:35:59;;;;;;;4.72;3.58;;;16.80;96.70;;;;;;5075813;28;20490;-70
2023/03/24 09:38:28;;;;;;;2.20;1.23;;;16.80;96.70;;;;;;5077678;28;20501;-70
2023/03/24 09:41:01;;;;;;;2.05;1.30;;;16.70;96.70;;;;;;5089737;28;20375;-71
2023/03/24 09:43:38;;;;;;;2.08;1.20;;;16.70;96.70;;;;;;5082134;28;20405;-70
2023/03/24 09:46:13;;;;;;;1.85;1.20;;;16.60;96.70;;;;;;5076841;28;20571;-71
2023/03/24 09:48:48;;;;;;;3.40;1.27;;;16.50;96.70;;;;;;5074898;28;20047;-70
2023/03/24 09:51:21;;;;;;;2.50;1.38;;;16.50;96.70;;;;;;5086423;28;20047;-70
2023/03/24 09:53:53;;;;;;;3.00;1.35;;;16.40;96.70;;;;;;5080460;28;20810;-70
2023/03/24 09:56:22;;;;;;;5.20;1.35;;;16.40;96.70;;;;;;5063648;28;20044;-70
2023/03/24 09:58:59;;;;;;;3.88;1.30;;;16.50;96.70;;;;;;5082487;28;20048;-71
2023/03/24 10:01:27;;;;;;;3.75;1.60;;;16.50;96.70;;;;;;5083885;28;20043;-70
2023/03/24 10:03:58;;;;;;;3.13;1.58;;;16.50;96.70;;;;;;5091049;28;20047;-70
2023/03/24 10:06:34;;;;;;;4.00;1.40;;;16.60;96.70;;;;;;5082803;28;20036;-69
2023/03/24 10:09:29;;;;;;;3.33;1.80;;;16.80;96.70;;;;;;5081226;28;20414;-71
2023/03/24 10:12:13;;;;;;;4.07;1.80;;;16.80;96.70;;;;;;5066154;28;20413;-71
2023/03/24 10:14:55;;;;;;;3.95;2.03;;;17.00;96.70;;;;;;5077474;28;20048;-71
2023/03/24 10:17:32;;;;;;;2.97;1.83;;;17.30;96.70;;;;;;5085754;28;20048;-71
2023/03/24 10:20:11;;;;;;;4.43;2.25;;;17.40;96.70;;;;;;5080692;28;20719;-71
2023/03/24 10:22:49;;;;;;;4.20;2.33;;;17.60;96.70;;;;;;5075141;28;20049;-71
2023/03/24 10:25:22;;;;;;;4.30;2.63;;;17.80;96.70;;;;;;5082200;28;20060;-70
2023/03/24 10:27:55;;;;;;;4.35;2.33;;;17.80;96.70;;;;;;5082430;28;20409;-70
2023/03/24 10:30:27;;;;;;;5.13;2.80;;;17.80;96.70;;;;;;5080827;28;20642;-71
2023/03/24 10:32:55;;;;;;;4.43;2.58;;;17.90;96.70;;;;;;5075119;28;20102;-71
2023/03/24 10:35:28;;;;;;;5.30;2.33;;;18.20;96.70;;;;;;5084030;28;20552;-71
2023/03/24 10:37:59;;;;;;;3.45;1.77;;;18.40;96.70;;;;;;5081342;28;20055;-71
2023/03/24 10:40:30;;;;;;;3.30;1.80;;;18.50;96.70;;;;;;5090925;28;20131;-71
2023/03/24 10:43:02;;;;;;;3.70;1.50;;;18.50;96.70;;;;;;5096277;28;20051;-72
2023/03/24 10:45:39;;;;;;;3.08;2.03;;;18.30;96.70;;;;;;5082440;28;20508;-71
2023/03/24 10:48:08;;;;;;;3.42;2.20;;;18.40;96.70;;;;;;5076409;28;20199;-71
2023/03/24 10:50:42;;;;;;;5.28;2.38;;;18.40;96.70;;;;;;5082721;28;20043;-71
2023/03/24 10:53:17;;;;;;;3.15;1.80;;;18.10;96.70;;;;;;5081674;28;20120;-71
2023/03/24 10:55:46;;;;;;;4.75;2.10;;;18.20;96.70;;;;;;5089025;28;20047;-71
2023/03/24 10:58:19;;;;;;;5.38;2.30;;;18.30;96.70;;;;;;5078162;28;20527;-71
2023/03/24 11:00:48;;;;;;;3.85;2.25;;;18.30;96.70;;;;;;5083952;28;20056;-71
2023/03/24 11:03:23;;;;;;;2.47;1.83;;;18.50;96.70;;;;;;5080372;28;20048;-70
2023/03/24 11:05:58;;;;;;;3.10;1.95;;;18.50;96.70;;;;;;5074459;28;20040;-71
2023/03/24 11:08:31;;;;;;;3.50;1.80;;;18.70;96.70;;;;;;5086934;28;20044;-71
2023/03/24 11:10:59;;;;;;;2.08;1.33;;;18.90;96.70;;;;;;5082400;28;20176;-71
2023/03/24 11:13:29;;;;;;;3.13;1.58;;;19.00;96.70;;;;;;5084232;28;20047;-71
2023/03/24 11:16:08;;;;;;;2.72;1.67;;;19.20;96.70;;;;;;5080352;28;20040;-71
2023/03/24 11:18:36;;;;;;;2.58;1.73;;;19.30;96.70;;;;;;5082175;28;20498;-71
2023/03/24 11:21:07;;;;;;;4.30;1.75;;;19.30;96.70;;;;;;5080866;28;20040;-71
2023/03/24 11:23:41;;;;;;;3.05;1.50;;;19.40;96.70;;;;;;5082267;28;20466;-72
2023/03/24 11:26:14;;;;;;;3.17;1.10;;;19.50;96.70;;;;;;5080756;28;20036;-71
2023/03/24 11:28:45;;;;;;;2.97;1.38;;;19.30;96.70;;;;;;5080673;28;20140;-72
2023/03/24 11:31:23;;;;;;;1.75;1.25;;;19.30;96.70;;;;;;5094783;28;20054;-71
2023/03/24 11:33:56;;;;;;;2.55;1.30;;;19.40;96.70;;;;;;5099613;28;20116;-71
2023/03/24 11:36:42;;;;;;;2.53;1.20;;;19.40;96.70;;;;;;5074471;28;20048;-71
2023/03/24 11:39:17;;;;;;;3.00;1.48;;;19.50;96.70;;;;;;5091591;28;20144;-71
2023/03/24 11:41:57;;;;;;;2.42;1.30;;;19.60;96.70;;;;;;5093540;28;20047;-71
2023/03/24 11:44:25;;;;;;;2.95;1.33;;;19.60;96.70;;;;;;5088119;28;20100;-71
2023/03/24 11:46:57;;;;;;;2.47;1.13;;;19.80;96.70;;;;;;5102801;28;20062;-71
2023/03/24 11:49:29;;;;;;;2.08;1.30;;;19.80;96.70;;;;;;5098637;28;20769;-71
2023/03/24 11:51:59;;;;;;;3.42;1.30;;;19.80;96.70;;;;;;5085767;28;20421;-71
2023/03/24 11:54:32;;;;;;;1.98;0.93;;;19.90;96.70;;;;;;5085177;28;20193;-71
2023/03/24 11:57:04;;;;;;;2.75;1.50;;;20.00;96.70;;;;;;5085568;28;20039;-70
2023/03/24 11:59:36;;;;;;;1.88;1.23;;;20.00;96.70;;;;;;5083840;28;20122;-71
2023/03/24 12:02:16;;;;;;;2.78;1.30;;;20.20;96.70;;;;;;5083073;28;20101;-71
2023/03/24 12:05:08;;;;;;;1.45;1.05;;;20.20;96.70;;;;;;5073884;28;20051;-72
2023/03/24 12:08:03;;;;;;;2.53;1.33;;;20.20;96.70;;;;;;5090532;28;20044;-71
2023/03/24 12:10:47;;;;;;;2.83;1.20;;;20.30;96.70;;;;;;5087499;28;20056;-71
2023/03/24 12:13:20;;;;;;;2.53;1.50;;;20.50;96.70;;;;;;5095962;28;20549;-72
2023/03/24 12:16:14;;;;;;;3.10;1.17;;;20.80;96.70;;;;;;5086614;28;20047;-71
2023/03/24 12:19:04;;;;;;;1.20;1.10;;;20.70;96.70;;;;;;5103606;28;20092;-71
2023/03/24 12:21:47;;;;;;;3.67;1.30;;;20.70;96.70;;;;;;5088589;28;20044;-71
2023/03/24 12:24:27;;;;;;;1.98;1.23;;;20.60;96.70;;;;;;5092537;28;20131;-71
2023/03/24 12:26:58;;;;;;;2.10;1.15;;;20.80;96.70;;;;;;5096847;28;20044;-71
2023/03/24 12:29:58;;;;;;;3.00;1.42;;;21.00;96.70;;;;;;5083653;28;20916;-71
2023/03/24 12:32:54;;;;;;;2.03;1.38;;;20.90;96.70;;;;;;5085102;28;20183;-71
2023/03/24 12:35:51;;;;;;;4.50;1.40;;;20.80;96.70;;;;;;5078339;28;20073;-72
2023/03/24 12:38:39;;;;;;;1.40;1.10;;;21.00;96.70;;;;;;5098220;28;20058;-71
2023/03/24 12:41:31;;;;;;;2.47;1.38;;;21.10;96.70;;;;;;5075659;28;20170;-71
2023/03/24 12:44:26;;;;;;;2.38;1.40;;;20.90;96.70;;;;;;5070019;28;20055;-72
2023/03/24 12:47:02;;;;;;;2.58;1.13;;;21.20;96.70;;;;;;5058396;28;20125;-71
2023/03/24 12:49:48;;;;;;;2.63;1.30;;;21.30;96.70;;;;;;5095843;28;20063;-71
2023/03/24 12:52:32;;;;;;;2.00;1.20;;;21.00;96.70;;;;;;5094234;28;20040;-72
2023/03/24 12:55:03;;;;;;;3.38;1.63;;;20.70;96.70;;;;;;5098796;28;20058;-71
2023/03/24 12:57:38;;;;;;;3.08;1.27;;;20.60;96.70;;;;;;5094722;28;20042;-71
2023/03/24 13:00:12;;;;;;;2.33;1.40;;;20.50;96.70;;;;;;5091057;28;20058;-71
2023/03/24 13:02:47;;;;;;;3.22;1.20;;;20.70;96.70;;;;;;5077141;28;20101;-71
2023/03/24 13:05:20;;;;;;;3.63;1.55;;;21.00;96.70;;;;;;5084585;28;20044;-71
2023/03/24 13:07:52;;;;;;;3.97;1.33;;;21.10;96.70;;;;;;5092571;28;20527;-71
2023/03/24 13:10:24;;;;;;;1.95;1.50;;;21.00;96.70;;;;;;5081940;28;20143;-71
2023/03/24 13:12:57;;;;;;;3.72;1.48;;;21.00;96.70;;;;;;5085934;28;20071;-71
2023/03/24 13:15:30;;;;;;;2.85;1.30;;;21.00;96.70;;;;;;5093488;28;20550;-71
2023/03/24 13:18:13;;;;;;;2.55;1.00;;;21.10;96.70;;;;;;5093921;28;20048;-71
2023/03/24 13:20:44;;;;;;;2.83;1.30;;;20.60;96.70;;;;;;5098980;28;20051;-71
2023/03/24 13:23:39;;;;;;;2.83;1.15;;;20.70;96.70;;;;;;5086696;28;20042;-71
2023/03/24 13:26:16;;;;;;;2.50;1.30;;;20.80;96.70;;;;;;5083931;28;20409;-71
2023/03/24 13:28:56;;;;;;;2.50;1.30;;;20.90;96.70;;;;;;5074690;28;20058;-71